createdAt,value
2018-05-29T04:02:52.661Z,80.6
2018-05-29T04:03:12.827Z,80.1
2018-05-29T04:03:33.087Z,80.2
2018-05-29T04:03:53.793Z,80.7
2018-05-29T04:04:13.974Z,80.2
2018-05-29T04:04:34.191Z,80.5
2018-05-29T04:04:54.351Z,80.2
2018-05-29T04:05:14.560Z,80.5
2018-05-29T04:05:34.787Z,79.7
2018-05-29T04:05:55.864Z,79.8
2018-05-29T04:18:12.537Z,80.1
2018-05-29T04:18:33.571Z,79.6
2018-05-29T04:18:54.649Z,79.9
2018-05-29T04:19:54.012Z,79.5
2018-05-29T04:20:14.325Z,80
2018-05-29T04:20:35.417Z,79.3
2018-05-29T04:20:55.626Z,79.5
2018-05-29T04:21:15.791Z,79.7
2018-05-29T04:21:36.055Z,79.9
2018-05-29T04:26:28.241Z,80.8
2018-05-29T04:26:48.489Z,80.9
2018-05-29T04:27:08.751Z,80.7
2018-05-29T04:27:28.909Z,80.8
2018-05-29T04:29:54.202Z,81.7
2018-05-29T04:30:14.487Z,82
2018-05-29T04:32:15.874Z,82
2018-05-29T04:32:36.192Z,81.8
2018-05-29T04:35:27.927Z,81.9
2018-05-29T04:35:48.159Z,81.9
2018-05-29T04:38:54.089Z,81.8
2018-05-29T04:39:14.542Z,81.9
2018-05-29T04:42:03.325Z,82.1
2018-05-29T04:44:56.710Z,81.8
2018-05-29T04:45:16.949Z,81.7
2018-05-29T04:47:05.925Z,81.6
2018-05-29T04:49:55.704Z,82
2018-05-29T04:50:15.892Z,82.1
2018-05-29T04:52:17.221Z,82
2018-05-29T04:52:37.379Z,82
2018-05-29T04:54:32.520Z,81.7
2018-05-29T04:57:27.736Z,81.2
2018-05-29T04:57:47.924Z,81.5
2018-05-29T04:59:41.332Z,82
2018-05-29T05:00:01.579Z,82
2018-05-29T05:03:02.084Z,81.4
2018-05-29T05:03:22.433Z,81.3
2018-05-29T05:05:15.672Z,81.8
2018-05-29T05:05:35.898Z,81.9
2018-05-29T05:08:38.355Z,81.2
2018-05-29T05:08:59.971Z,81.5
2018-05-29T05:10:50.031Z,81.7
2018-05-29T05:11:10.199Z,81.3
2018-05-29T05:14:10.919Z,81.1
2018-05-29T05:14:31.125Z,81.3
2018-05-29T05:17:27.371Z,80.9
2018-05-29T05:17:47.724Z,80.6
2018-05-29T05:19:40.930Z,81
2018-05-29T05:20:01.291Z,80.9
2018-05-29T05:21:35.114Z,80.8
2018-05-29T05:21:55.331Z,80.8
2018-05-29T05:24:08.201Z,80.8
2018-05-29T05:24:28.540Z,80.5
2018-05-29T05:24:48.831Z,80.8
2018-05-29T05:25:09.072Z,80.8
2018-05-29T05:26:43.946Z,80.4
2018-05-29T05:27:04.168Z,80.5
2018-05-29T05:28:18.711Z,80.1
2018-05-29T05:29:26.718Z,80.2
2018-05-29T05:30:22.464Z,80.1
2018-05-29T05:30:42.694Z,79.7
2018-05-29T05:31:49.204Z,79.6
2018-05-29T05:32:51.178Z,79.5
2018-05-29T05:33:51.383Z,79.4
2018-05-29T05:34:11.607Z,79
2018-05-29T05:34:32.447Z,79
2018-05-29T05:34:52.699Z,79.5
2018-05-29T05:35:12.883Z,79.5
2018-05-29T05:35:33.039Z,79.6
2018-05-29T05:35:53.251Z,78.9
2018-05-29T05:36:53.769Z,79.2
2018-05-29T05:37:13.935Z,79.5
2018-05-29T05:38:32.875Z,79.4
2018-05-29T05:38:54.025Z,78.9
2018-05-29T05:39:15.139Z,78.9
2018-05-29T05:39:35.308Z,79
2018-05-29T05:39:55.555Z,79.1
2018-05-29T05:40:15.783Z,78.1
2018-05-29T05:40:35.977Z,78.1
2018-05-29T05:41:44.997Z,78.3
2018-05-29T05:42:05.207Z,79.2
2018-05-29T05:42:25.978Z,78.8
2018-05-29T05:42:46.127Z,78.7
2018-05-29T05:43:06.378Z,78.6
2018-05-29T05:43:26.588Z,79.3
2018-05-29T05:43:47.314Z,78.9
2018-05-29T05:44:07.513Z,78.9
2018-05-29T05:44:27.740Z,79.1
2018-05-29T05:44:47.975Z,79.2
2018-05-29T05:45:08.261Z,78.9
2018-05-29T05:45:28.486Z,79
2018-05-29T05:45:48.647Z,79.1
2018-05-29T05:46:09.156Z,79.2
2018-05-29T05:46:29.329Z,79.2
2018-05-29T05:46:50.178Z,79.7
2018-05-29T05:47:10.356Z,79.6
2018-05-29T05:47:30.629Z,79.6
2018-05-29T05:47:50.800Z,79.6
2018-05-29T05:48:10.962Z,79.5
2018-05-29T05:48:31.116Z,79.2
2018-05-29T05:48:53.850Z,79.6
2018-05-29T05:49:14.111Z,79
2018-05-29T05:49:35.167Z,79.2
2018-05-29T05:49:55.376Z,79.5
2018-05-29T05:50:16.423Z,78.8
2018-05-29T05:50:36.753Z,78.9
2018-05-29T05:50:57.040Z,79
2018-05-29T05:51:17.238Z,79.1
2018-05-29T05:51:37.450Z,79.2
2018-05-29T05:51:57.634Z,79.2
2018-05-29T05:52:18.632Z,79.4
2018-05-29T05:52:38.831Z,79.3
2018-05-29T05:52:59.785Z,78.5
2018-05-29T05:53:19.944Z,78.3
2018-05-29T05:53:40.126Z,78.6
2018-05-29T05:54:00.294Z,78.5
2018-05-29T05:54:21.367Z,78.5
2018-05-29T05:54:41.510Z,78.6
2018-05-29T05:55:01.714Z,78
2018-05-29T05:55:21.884Z,78.8
2018-05-29T05:55:42.082Z,78.2
2018-05-29T05:56:02.364Z,80.3
2018-05-29T05:56:22.505Z,79.5
2018-05-29T05:56:42.690Z,79.2
2018-05-29T05:57:03.616Z,78.3
2018-05-29T05:57:23.766Z,78.5
2018-05-29T05:57:44.611Z,77.6
2018-05-29T05:58:04.825Z,78.3
2018-05-29T05:58:24.958Z,77.6
2018-05-29T05:58:45.257Z,77.8
2018-05-29T05:59:05.488Z,77.4
2018-05-29T05:59:25.683Z,77.7
2018-05-29T05:59:46.749Z,77.2
2018-05-29T06:00:06.945Z,76.3
2018-05-29T06:00:27.319Z,76.6
2018-05-29T06:00:47.546Z,76.9
2018-05-29T06:01:08.646Z,77
2018-05-29T06:01:28.833Z,77
2018-05-29T06:01:49.037Z,77.5
2018-05-29T06:02:09.203Z,76.6
2018-05-29T06:02:29.457Z,76.6
2018-05-29T06:02:49.627Z,76.2
2018-05-29T06:03:09.853Z,76.8
2018-05-29T06:03:30.075Z,76.9
2018-05-29T06:03:50.253Z,76
2018-05-29T06:04:11.368Z,75.7
2018-05-29T06:04:31.539Z,75.6
2018-05-29T06:04:51.714Z,75.3
2018-05-29T06:05:11.890Z,76.3
2018-05-29T06:05:33.172Z,76.4
2018-05-29T06:05:53.403Z,76.3
2018-05-29T06:06:13.589Z,76.8
2018-05-29T06:06:33.747Z,77.1
2018-05-29T06:06:54.597Z,76.6
2018-05-29T06:07:15.691Z,77.2
2018-05-29T06:07:35.894Z,77
2018-05-29T06:07:56.050Z,77
2018-05-29T06:08:16.224Z,74.8
2018-05-29T06:08:36.393Z,75.5
2018-05-29T06:08:56.580Z,75.5
2018-05-29T06:09:16.745Z,75.7
2018-05-29T06:09:36.932Z,76.2
2018-05-29T06:09:57.125Z,76.4
2018-05-29T06:10:17.385Z,76.1
2018-05-29T06:10:37.632Z,76.4
2018-05-29T06:10:57.931Z,76.2
2018-05-29T06:11:18.690Z,77.1
2018-05-29T06:11:38.859Z,77.1
2018-05-29T06:11:59.039Z,76.9
2018-05-29T06:12:19.191Z,76.8
2018-05-29T06:12:39.348Z,77
2018-05-29T06:12:59.600Z,76.9
2018-05-29T06:13:19.789Z,76.5
2018-05-29T06:13:40.064Z,76.4
2018-05-29T06:14:00.301Z,76.2
2018-05-29T06:14:20.478Z,75
2018-05-29T06:14:40.649Z,75.3
2018-05-29T06:15:00.840Z,75.5
2018-05-29T06:15:20.999Z,75.8
2018-05-29T06:15:41.194Z,76.5
2018-05-29T06:16:01.389Z,76.1
2018-05-29T06:16:21.551Z,76.2
2018-05-29T06:16:42.343Z,76.3
2018-05-29T06:17:02.503Z,76.9
2018-05-29T06:17:22.698Z,76.3
2018-05-29T06:17:42.834Z,76.9
2018-05-29T06:18:02.990Z,77.1
2018-05-29T06:18:23.158Z,76.6
2018-05-29T06:18:43.431Z,76.8
2018-05-29T06:19:03.630Z,75.1
2018-05-29T06:19:23.801Z,75.1
2018-05-29T06:19:43.961Z,75.2
2018-05-29T06:20:04.106Z,75.7
2018-05-29T06:20:24.271Z,76.1
2018-05-29T06:20:44.428Z,75.9
2018-05-29T06:21:04.599Z,76.3
2018-05-29T06:21:24.792Z,75.1
2018-05-29T06:21:45.796Z,75.2
2018-05-29T06:22:05.894Z,74.3
2018-05-29T06:22:26.065Z,74.5
2018-05-29T06:22:46.248Z,74.1
2018-05-29T06:23:06.572Z,74.4
2018-05-29T06:23:26.758Z,73.6
2018-05-29T06:23:47.003Z,73.6
2018-05-29T06:24:07.303Z,73.7
2018-05-29T06:24:27.499Z,73.4
2018-05-29T06:24:47.617Z,73.8
2018-05-29T06:25:07.791Z,73.6
2018-05-29T06:25:28.069Z,73.4
2018-05-29T06:25:48.240Z,73.4
2018-05-29T06:26:08.413Z,73.6
2018-05-29T06:26:28.622Z,73.4
2018-05-29T06:26:48.843Z,73.1
2018-05-29T06:27:09.008Z,72.5
2018-05-29T06:27:29.947Z,73.1
2018-05-29T06:27:50.108Z,73.6
2018-05-29T06:28:10.253Z,73.6
2018-05-29T06:28:31.283Z,72.6
2018-05-29T06:28:51.479Z,72.8
2018-05-29T06:29:11.662Z,73
2018-05-29T06:29:31.888Z,72.5
2018-05-29T06:29:52.054Z,73.3
2018-05-29T06:30:12.247Z,73.1
2018-05-29T06:30:32.511Z,73.6
2018-05-29T06:30:52.744Z,73.5
2018-05-29T06:31:12.947Z,73.4
2018-05-29T06:31:33.201Z,73.9
2018-05-29T06:31:53.463Z,74.3
2018-05-29T06:32:13.668Z,74.1
2018-05-29T06:32:33.837Z,74
2018-05-29T06:32:54.033Z,73.8
2018-05-29T06:33:14.234Z,73.6
2018-05-29T06:33:34.419Z,73.9
2018-05-29T06:33:54.571Z,74.1
2018-05-29T06:34:15.385Z,73.7
2018-05-29T06:34:36.367Z,74.2
2018-05-29T06:34:56.562Z,73.7
2018-05-29T06:35:16.787Z,73.4
2018-05-29T06:35:39.744Z,73.2
2018-05-29T06:35:59.959Z,73.3
2018-05-29T06:36:20.132Z,73.3
2018-05-29T06:36:41.363Z,73.6
2018-05-29T06:37:01.633Z,73.5
2018-05-29T06:37:21.824Z,73.4
2018-05-29T06:37:42.898Z,73.2
2018-05-29T06:38:03.688Z,73.6
2018-05-29T06:38:23.827Z,72.9
2018-05-29T06:38:44.814Z,72.7
2018-05-29T06:39:05.782Z,73.2
2018-05-29T06:39:26.039Z,72.8
2018-05-29T06:39:46.537Z,73.4
2018-05-29T06:40:06.904Z,72.9
2018-05-29T06:40:27.396Z,73.1
2018-05-29T06:40:47.632Z,73.6
2018-05-29T06:41:08.284Z,73.2
2018-05-29T06:41:28.540Z,72.9
2018-05-29T06:41:48.704Z,73.2
2018-05-29T06:42:08.972Z,73.2
2018-05-29T06:42:29.349Z,73
2018-05-29T06:42:49.932Z,72.9
2018-05-29T06:43:10.244Z,72.5
2018-05-29T06:43:31.284Z,72.3
2018-05-29T06:43:51.552Z,72.3
2018-05-29T06:44:12.384Z,72.6
2018-05-29T06:44:32.544Z,72.3
2018-05-29T06:44:52.799Z,72.2
2018-05-29T06:45:13.055Z,72.5
2018-05-29T06:45:33.221Z,73
2018-05-29T06:45:53.626Z,73
2018-05-29T06:46:15.403Z,72.3
2018-05-29T06:46:35.558Z,72.5
2018-05-29T06:46:56.248Z,71.8
2018-05-29T06:47:16.445Z,72.4
2018-05-29T06:47:36.643Z,72.6
2018-05-29T06:47:56.856Z,71.9
2018-05-29T06:48:17.036Z,72.6
2018-05-29T06:48:37.170Z,72.4
2018-05-29T06:48:57.410Z,72.1
2018-05-29T06:49:17.595Z,72.1
2018-05-29T06:49:37.957Z,72.1
2018-05-29T06:49:58.221Z,72.5
2018-05-29T06:50:18.456Z,72
2018-05-29T06:50:38.681Z,72.2
2018-05-29T06:50:58.925Z,71.5
2018-05-29T06:51:19.882Z,72
2018-05-29T06:51:40.083Z,71.5
2018-05-29T06:52:00.319Z,72
2018-05-29T06:52:21.452Z,71.6
2018-05-29T06:52:41.699Z,71.3
2018-05-29T06:53:02.041Z,70.5
2018-05-29T06:53:22.288Z,70.4
2018-05-29T06:53:42.506Z,70.4
2018-05-29T06:54:03.201Z,70.2
2018-05-29T06:54:23.353Z,69.6
2018-05-29T06:54:43.508Z,69.4
2018-05-29T06:55:03.691Z,69.5
2018-05-29T06:55:24.816Z,69.8
2018-05-29T06:55:44.950Z,70
2018-05-29T06:56:05.295Z,70.1
2018-05-29T06:56:26.261Z,70.2
2018-05-29T06:56:46.399Z,70.1
2018-05-29T06:57:07.873Z,70
2018-05-29T06:57:28.100Z,71.1
2018-05-29T06:57:48.336Z,72
2018-05-29T06:58:09.350Z,72.3
2018-05-29T06:58:29.530Z,72.1
2018-05-29T06:58:49.752Z,71.8
2018-05-29T06:59:10.400Z,71.3
2018-05-29T06:59:30.613Z,72
2018-05-29T06:59:50.814Z,71.6
2018-05-29T07:00:11.610Z,71.4
2018-05-29T07:00:31.784Z,70.8
2018-05-29T07:00:51.939Z,71.1
2018-05-29T07:01:12.189Z,70.8
2018-05-29T07:01:32.400Z,70.5
2018-05-29T07:01:52.688Z,70.8
2018-05-29T07:02:12.984Z,69.6
2018-05-29T07:02:33.762Z,70.1
2018-05-29T07:02:53.954Z,70.3
2018-05-29T07:03:14.151Z,70.1
2018-05-29T07:03:34.516Z,69.5
2018-05-29T07:03:54.649Z,69.3
2018-05-29T07:04:14.984Z,69.1
2018-05-29T07:04:35.298Z,69.5
2018-05-29T07:04:55.552Z,69.5
2018-05-29T07:05:15.911Z,68.6
2018-05-29T07:05:36.128Z,68.6
2018-05-29T07:05:57.873Z,69.2
2018-05-29T07:06:18.031Z,68.9
2018-05-29T07:06:38.765Z,68.5
2018-05-29T07:06:59.839Z,68.9
2018-05-29T07:07:20.941Z,68.4
2018-05-29T07:07:41.155Z,68.3
2018-05-29T07:08:01.442Z,68.4
2018-05-29T07:08:21.735Z,69.1
2018-05-29T07:08:42.049Z,68.9
2018-05-29T07:09:02.362Z,68.3
2018-05-29T07:09:22.544Z,68
2018-05-29T07:09:43.774Z,67.2
2018-05-29T07:10:04.068Z,67.3
2018-05-29T07:10:24.227Z,67.1
2018-05-29T07:10:44.917Z,67.4
2018-05-29T07:11:05.137Z,68.1
2018-05-29T07:11:25.426Z,67.5
2018-05-29T07:11:45.592Z,67.5
2018-05-29T07:12:05.870Z,67.8
2018-05-29T07:12:26.055Z,68.1
2018-05-29T07:12:46.234Z,67.5
2018-05-29T07:13:06.647Z,67.4
2018-05-29T07:13:27.818Z,67
2018-05-29T07:13:47.975Z,67.4
2018-05-29T07:14:08.915Z,67.7
2018-05-29T07:14:29.267Z,67.2
2018-05-29T07:14:49.704Z,67.3
2018-05-29T07:15:11.890Z,66.6
2018-05-29T07:15:32.172Z,66.2
2018-05-29T07:15:52.512Z,67.1
2018-05-29T07:16:12.827Z,67.7
2018-05-29T07:16:33.100Z,67.5
2018-05-29T07:16:53.491Z,67.7
2018-05-29T07:17:13.790Z,67.1
2018-05-29T07:17:34.913Z,67.5
2018-05-29T07:17:55.444Z,67.2
2018-05-29T07:18:15.731Z,67.7
2018-05-29T07:18:35.957Z,68
2018-05-29T07:18:56.155Z,67.6
2018-05-29T07:19:16.347Z,67.4
2018-05-29T07:19:36.530Z,67.3
2018-05-29T07:19:57.513Z,67
2018-05-29T07:20:17.773Z,66.5
2018-05-29T07:20:37.952Z,66.7
2018-05-29T07:20:58.109Z,66.5
2018-05-29T07:21:18.279Z,66.7
2018-05-29T07:21:39.919Z,66
2018-05-29T07:22:00.081Z,65.9
2018-05-29T07:22:20.251Z,66.4
2018-05-29T07:22:40.390Z,67.2
2018-05-29T07:23:01.177Z,66.7
2018-05-29T07:23:21.321Z,66.7
2018-05-29T07:23:41.499Z,66.9
2018-05-29T07:24:01.671Z,68.3
2018-05-29T07:24:21.871Z,68.2
2018-05-29T07:24:42.105Z,67.2
2018-05-29T07:25:02.524Z,66.6
2018-05-29T07:25:22.920Z,66.7
2018-05-29T07:25:43.424Z,66.6
2018-05-29T07:26:03.670Z,66.9
2018-05-29T07:26:23.909Z,68.2
2018-05-29T07:26:44.755Z,68.6
2018-05-29T07:27:05.102Z,68.3
2018-05-29T07:27:25.441Z,68.1
2018-05-29T07:27:45.620Z,67.6
2018-05-29T07:28:05.759Z,66.6
2018-05-29T07:28:26.138Z,66.7
2018-05-29T07:28:46.323Z,66.8
2018-05-29T07:29:06.521Z,65.9
2018-05-29T07:29:26.700Z,66.8
2018-05-29T07:29:46.968Z,65.2
2018-05-29T07:30:07.185Z,65.3
2018-05-29T07:30:27.439Z,65.5
2018-05-29T07:30:48.438Z,65.5
2018-05-29T07:31:08.750Z,65.5
2018-05-29T07:31:29.078Z,65.6
2018-05-29T07:31:49.276Z,65
2018-05-29T07:32:10.391Z,65.3
2018-05-29T07:32:30.583Z,64.7
2018-05-29T07:32:50.741Z,65.6
2018-05-29T07:33:10.961Z,65.5
2018-05-29T07:33:31.236Z,66.5
2018-05-29T07:33:51.417Z,66.2
2018-05-29T07:34:11.574Z,66
2018-05-29T07:34:32.666Z,65.2
2018-05-29T07:34:52.875Z,65.5
2018-05-29T07:35:13.100Z,65.6
2018-05-29T07:35:33.255Z,65.2
2018-05-29T07:35:53.513Z,66.3
2018-05-29T07:36:13.787Z,65.7
2018-05-29T07:36:34.049Z,65.6
2018-05-29T07:36:54.324Z,65.6
2018-05-29T07:37:14.561Z,65.1
2018-05-29T07:37:34.781Z,64.5
2018-05-29T07:37:55.045Z,64.6
2018-05-29T07:38:15.566Z,63.3
2018-05-29T07:38:35.952Z,62.7
2018-05-29T07:38:57.016Z,63.6
2018-05-29T07:39:17.494Z,64.8
2018-05-29T07:39:37.878Z,64.4
2018-05-29T07:39:58.840Z,63.9
2018-05-29T07:40:19.175Z,63.5
2018-05-29T07:40:39.512Z,64.1
2018-05-29T07:40:59.851Z,63.6
2018-05-29T07:41:20.018Z,63.9
2018-05-29T07:41:40.311Z,64.1
2018-05-29T07:42:00.628Z,64.7
2018-05-29T07:42:20.937Z,64.2
2018-05-29T07:42:41.195Z,66.7
2018-05-29T07:43:01.554Z,65.7
2018-05-29T07:43:22.986Z,65.5
2018-05-29T07:43:43.249Z,65.2
2018-05-29T07:44:03.848Z,65.7
2018-05-29T07:44:24.143Z,64.9
2018-05-29T07:44:45.433Z,64.5
2018-05-29T07:45:05.987Z,62.7
2018-05-29T07:45:26.497Z,62.5
2018-05-29T07:45:46.740Z,63.4
2018-05-29T07:46:07.842Z,63.9
2018-05-29T07:46:28.127Z,63
2018-05-29T07:46:48.425Z,63.4
2018-05-29T07:47:09.446Z,63.4
2018-05-29T07:47:29.908Z,62.4
2018-05-29T07:47:50.112Z,61.3
2018-05-29T07:48:11.179Z,62
2018-05-29T07:48:31.568Z,62.8
2018-05-29T07:48:51.903Z,63
2018-05-29T07:49:12.330Z,62.4
2018-05-29T07:49:32.522Z,61.4
2018-05-29T07:49:53.030Z,62.6
2018-05-29T07:50:13.285Z,62.5
2018-05-29T07:50:33.545Z,62.9
2018-05-29T07:50:53.807Z,62.8
2018-05-29T07:51:13.979Z,63
2018-05-29T07:51:34.262Z,62.5
2018-05-29T07:51:54.625Z,63.3
2018-05-29T07:52:14.957Z,63.4
2018-05-29T07:52:35.295Z,63.4
2018-05-29T07:52:55.812Z,63
2018-05-29T07:53:17.094Z,63.6
2018-05-29T07:53:37.540Z,63.5
2018-05-29T07:53:57.781Z,63.4
2018-05-29T07:54:18.936Z,63.5
2018-05-29T07:54:39.319Z,63.2
2018-05-29T07:54:59.802Z,63.4
2018-05-29T07:55:20.207Z,63.6
2018-05-29T07:55:40.615Z,62.4
2018-05-29T07:56:01.175Z,61.6
2018-05-29T07:56:21.662Z,61.1
2018-05-29T07:56:42.086Z,61.5
2018-05-29T07:57:02.631Z,61.4
2018-05-29T07:57:23.042Z,61.3
2018-05-29T07:57:43.494Z,60.8
2018-05-29T07:58:03.800Z,61.4
2018-05-29T07:58:24.194Z,62.3
2018-05-29T07:58:44.648Z,62.3
2018-05-29T07:59:05.327Z,61.3
2018-05-29T07:59:25.777Z,60.6
2018-05-29T07:59:46.374Z,60.2
2018-05-29T08:00:07.467Z,60.6
2018-05-29T08:00:28.001Z,60.4
2018-05-29T08:00:48.301Z,60.5
2018-05-29T08:01:08.613Z,59.3
2018-05-29T08:01:29.128Z,59.7
2018-05-29T08:01:50.372Z,58.5
2018-05-29T08:02:10.590Z,59.1
2018-05-29T08:02:30.985Z,59.8
2018-05-29T08:02:51.971Z,60.1
2018-05-29T08:03:12.282Z,59.9
2018-05-29T08:03:32.585Z,59.2
2018-05-29T08:03:53.086Z,60.3
2018-05-29T08:04:13.414Z,59.9
2018-05-29T08:04:33.683Z,60.5
2018-05-29T08:04:53.997Z,59.5
2018-05-29T08:05:14.288Z,59.5
2018-05-29T08:05:34.776Z,59.7
2018-05-29T08:05:55.836Z,59.5
2018-05-29T08:06:16.046Z,59.3
2018-05-29T08:06:36.364Z,60.4
2018-05-29T08:06:56.738Z,59.3
2018-05-29T08:07:17.081Z,59.7
2018-05-29T08:07:37.366Z,59.4
2018-05-29T08:07:57.717Z,60
2018-05-29T08:08:17.988Z,60.1
2018-05-29T08:08:38.871Z,59.5
2018-05-29T08:08:59.027Z,59
2018-05-29T08:09:19.983Z,58.4
2018-05-29T08:09:40.213Z,58.3
2018-05-29T08:10:00.375Z,58.1
2018-05-29T08:10:20.563Z,58.7
2018-05-29T08:10:40.866Z,58.9
2018-05-29T08:11:01.883Z,58.7
2018-05-29T08:11:22.268Z,59.7
2018-05-29T08:11:42.897Z,60.3
2018-05-29T08:12:03.251Z,60.5
2018-05-29T08:12:23.632Z,60
2018-05-29T08:12:43.917Z,60.1
2018-05-29T08:13:04.315Z,60.3
2018-05-29T08:13:24.706Z,61
2018-05-29T08:13:45.141Z,60.4
2018-05-29T08:14:06.871Z,60.2
2018-05-29T08:14:27.088Z,59.8
2018-05-29T08:14:47.559Z,60.1
2018-05-29T08:15:07.869Z,59.5
2018-05-29T08:15:28.373Z,60.2
2018-05-29T08:15:48.828Z,60.4
2018-05-29T08:16:09.183Z,60.6
2018-05-29T08:16:29.665Z,60.1
2018-05-29T08:16:49.907Z,60.3
2018-05-29T08:17:10.060Z,60.7
2018-05-29T08:17:30.473Z,59.8
2018-05-29T08:17:50.752Z,59.4
2018-05-29T08:18:13.127Z,60
2018-05-29T08:18:33.714Z,59.7
2018-05-29T08:18:53.863Z,58.9
2018-05-29T08:19:14.176Z,58.8
2018-05-29T08:19:34.431Z,58.8
2018-05-29T08:19:55.716Z,59
2018-05-29T08:20:16.395Z,57.6
2018-05-29T08:20:36.827Z,57.8
2018-05-29T08:20:57.298Z,58.7
2018-05-29T08:21:17.561Z,58.7
2018-05-29T08:21:37.879Z,58.9
2018-05-29T08:21:58.221Z,59.4
2018-05-29T08:22:18.419Z,60.9
2018-05-29T08:22:38.564Z,60.5
2018-05-29T08:22:58.906Z,60.9
2018-05-29T08:23:19.286Z,60.3
2018-05-29T08:23:39.630Z,60.1
2018-05-29T08:24:00.919Z,60.3
2018-05-29T08:24:22.006Z,60.2
2018-05-29T08:24:43.076Z,60.2
2018-05-29T08:25:03.467Z,60
2018-05-29T08:25:23.768Z,59.9
2018-05-29T08:25:43.984Z,59.9
2018-05-29T08:26:04.347Z,59.6
2018-05-29T08:26:24.817Z,58.2
2018-05-29T08:26:45.130Z,57.6
2018-05-29T08:27:05.377Z,57.9
2018-05-29T08:27:27.388Z,58.4
2018-05-29T08:27:47.594Z,58.4
2018-05-29T08:28:08.460Z,58.1
2018-05-29T08:28:28.633Z,58.5
2018-05-29T08:28:49.052Z,58.9
2018-05-29T08:29:09.394Z,59
2018-05-29T08:29:29.668Z,58.7
2018-05-29T08:29:49.966Z,58.2
2018-05-29T08:30:10.171Z,58.4
2018-05-29T08:30:30.471Z,59
2018-05-29T08:30:50.749Z,58.8
2018-05-29T08:31:10.988Z,58.9
2018-05-29T08:31:31.296Z,59.1
2018-05-29T08:31:51.568Z,57.8
2018-05-29T08:32:11.996Z,57.3
2018-05-29T08:32:32.423Z,57.2
2018-05-29T08:32:52.866Z,56.7
2018-05-29T08:33:13.431Z,57.2
2018-05-29T08:33:34.523Z,57.4
2018-05-29T08:33:55.401Z,57.6
2018-05-29T08:34:15.798Z,56.8
2018-05-29T08:34:36.861Z,56.9
2018-05-29T08:34:57.153Z,56.1
2018-05-29T08:35:17.407Z,56.7
2018-05-29T08:35:37.692Z,56.3
2018-05-29T08:35:57.992Z,55.7
2018-05-29T08:36:18.275Z,56
2018-05-29T08:36:38.587Z,55.3
2018-05-29T08:36:59.043Z,56.1
2018-05-29T08:37:19.307Z,55.2
2018-05-29T08:37:40.480Z,55
2018-05-29T08:38:00.676Z,54.5
2018-05-29T08:38:20.835Z,56.3
2018-05-29T08:38:41.018Z,55.8
2018-05-29T08:39:01.797Z,56.1
2018-05-29T08:39:21.988Z,56.3
2018-05-29T08:39:42.923Z,55.6
2018-05-29T08:40:03.079Z,56.4
2018-05-29T08:40:23.302Z,57.3
2018-05-29T08:40:43.537Z,56.7
2018-05-29T08:41:03.711Z,57.5
2018-05-29T08:41:24.074Z,57.7
2018-05-29T08:41:44.510Z,58.7
2018-05-29T08:42:04.946Z,57.8
2018-05-29T08:42:25.209Z,56.9
2018-05-29T08:42:45.405Z,56.4
2018-05-29T08:43:05.807Z,56.8
2018-05-29T08:43:26.195Z,56.8
2018-05-29T08:43:46.552Z,57.5
2018-05-29T08:44:07.447Z,57.6
2018-05-29T08:44:29.058Z,57.7
2018-05-29T08:44:49.289Z,56
2018-05-29T08:45:09.686Z,55.7
2018-05-29T08:45:29.931Z,55.8
2018-05-29T08:45:50.101Z,56.1
2018-05-29T08:46:10.418Z,56.2
2018-05-29T08:46:30.749Z,55.9
2018-05-29T08:46:51.861Z,55.2
2018-05-29T08:47:12.187Z,56.3
2018-05-29T08:47:32.522Z,56.5
2018-05-29T08:47:52.758Z,55.9
2018-05-29T08:48:13.961Z,55.8
2018-05-29T08:48:34.843Z,56.1
2018-05-29T08:48:55.231Z,55.5
2018-05-29T08:49:15.534Z,56
2018-05-29T08:49:35.780Z,54.7
2018-05-29T08:49:56.022Z,54.4
2018-05-29T08:50:16.213Z,54
2018-05-29T08:50:36.485Z,54.1
2018-05-29T08:50:56.761Z,54.3
2018-05-29T08:51:17.118Z,54.6
2018-05-29T08:51:37.438Z,54.3
2018-05-29T08:51:57.990Z,54.2
2018-05-29T08:52:18.275Z,55.2
2018-05-29T08:52:38.556Z,54.1
2018-05-29T08:52:58.838Z,54.5
2018-05-29T08:53:19.157Z,54.9
2018-05-29T08:53:39.479Z,54.7
2018-05-29T08:53:59.920Z,54.1
2018-05-29T08:54:20.303Z,54.1
2018-05-29T08:54:40.473Z,54.2
2018-05-29T08:55:01.611Z,54.1
2018-05-29T08:55:21.818Z,54.2
2018-05-29T08:55:42.809Z,54.4
2018-05-29T08:56:03.037Z,54.1
2018-05-29T08:56:23.250Z,54.9
2018-05-29T08:56:43.635Z,55.5
2018-05-29T08:57:04.080Z,56.3
2018-05-29T08:57:24.465Z,56.2
2018-05-29T08:57:44.754Z,54.9
2018-05-29T08:58:05.521Z,56.1
2018-05-29T08:58:25.833Z,56.2
2018-05-29T08:58:46.169Z,56.3
2018-05-29T08:59:06.502Z,56.3
2018-05-29T08:59:26.728Z,55.4
2018-05-29T08:59:47.057Z,56.2
2018-05-29T09:00:07.437Z,55.6
2018-05-29T09:00:27.901Z,55.6
2018-05-29T09:00:48.264Z,54.7
2018-05-29T09:01:08.508Z,54.6
2018-05-29T09:01:28.677Z,54.8
2018-05-29T09:01:49.517Z,54.8
2018-05-29T09:02:09.832Z,54.1
2018-05-29T09:02:30.989Z,54.6
2018-05-29T09:02:52.025Z,54.2
2018-05-29T09:03:12.212Z,53.7
2018-05-29T09:03:32.546Z,53.5
2018-05-29T09:03:52.822Z,53
2018-05-29T09:04:13.113Z,54.2
2018-05-29T09:04:33.905Z,53.5
2018-05-29T09:04:54.158Z,53.6
2018-05-29T09:05:14.376Z,54.3
2018-05-29T09:05:34.782Z,54.9
2018-05-29T09:05:55.123Z,54.2
2018-05-29T09:06:15.394Z,54
2018-05-29T09:06:35.694Z,53.5
2018-05-29T09:06:55.957Z,53.7
2018-05-29T09:07:16.209Z,53.1
2018-05-29T09:07:36.603Z,53.4
2018-05-29T09:07:56.867Z,53.3
2018-05-29T09:08:17.267Z,53.4
2018-05-29T09:08:37.603Z,52.6
2018-05-29T09:08:57.882Z,53.1
2018-05-29T09:09:18.129Z,52.8
2018-05-29T09:09:39.021Z,53
2018-05-29T09:10:00.016Z,53.3
2018-05-29T09:10:20.356Z,53.2
2018-05-29T09:10:40.632Z,53.3
2018-05-29T09:11:01.555Z,52.7
2018-05-29T09:11:21.878Z,52.7
2018-05-29T09:11:42.221Z,53.2
2018-05-29T09:12:02.545Z,54.2
2018-05-29T09:12:23.509Z,53.3
2018-05-29T09:12:43.845Z,53
2018-05-29T09:13:04.135Z,53.1
2018-05-29T09:13:24.382Z,52.4
2018-05-29T09:13:44.625Z,51.8
2018-05-29T09:14:04.824Z,51.8
2018-05-29T09:14:25.063Z,51.2
2018-05-29T09:14:45.425Z,51.8
2018-05-29T09:15:05.920Z,52
2018-05-29T09:15:26.453Z,51
2018-05-29T09:15:46.705Z,51.4
2018-05-29T09:16:07.005Z,51.3
2018-05-29T09:16:27.460Z,51.6
2018-05-29T09:16:47.696Z,51.2
2018-05-29T09:17:08.025Z,50.9
2018-05-29T09:17:28.908Z,51
2018-05-29T09:17:49.268Z,51.3
2018-05-29T09:18:09.563Z,51.5
2018-05-29T09:18:30.009Z,50.9
2018-05-29T09:18:51.038Z,50.8
2018-05-29T09:19:11.949Z,50.5
2018-05-29T09:19:32.159Z,51.2
2018-05-29T09:19:53.087Z,53.2
2018-05-29T09:20:13.519Z,52.7
2018-05-29T09:20:33.789Z,53.1
2018-05-29T09:20:54.132Z,52.9
2018-05-29T09:21:14.412Z,53.3
2018-05-29T09:21:34.799Z,52.9
2018-05-29T09:21:55.168Z,52.1
2018-05-29T09:22:15.564Z,51.7
2018-05-29T09:22:36.474Z,50.7
2018-05-29T09:22:56.937Z,50.1
2018-05-29T09:23:17.505Z,50.3
2018-05-29T09:23:37.934Z,49.9
2018-05-29T09:23:58.466Z,49.8
2018-05-29T09:24:19.491Z,50.5
2018-05-29T09:24:40.004Z,49.8
2018-05-29T09:25:00.381Z,49.5
2018-05-29T09:25:20.884Z,50.4
2018-05-29T09:25:41.406Z,50.5
2018-05-29T09:26:02.557Z,49.8
2018-05-29T09:26:23.553Z,49.8
2018-05-29T09:26:44.556Z,50.3
2018-05-29T09:27:05.033Z,50
2018-05-29T09:27:25.419Z,50.1
2018-05-29T09:27:45.881Z,50.1
2018-05-29T09:28:06.131Z,49.8
2018-05-29T09:28:26.403Z,49.7
2018-05-29T09:28:46.669Z,49.8
2018-05-29T09:29:08.016Z,49.7
2018-05-29T09:29:28.262Z,49.9
2018-05-29T09:29:48.749Z,50.4
2018-05-29T09:30:09.243Z,50.8
2018-05-29T09:30:29.571Z,51.9
2018-05-29T09:30:50.000Z,51.8
2018-05-29T09:31:10.612Z,51.4
2018-05-29T09:31:30.958Z,51.8
2018-05-29T09:31:51.252Z,51.5
2018-05-29T09:32:11.617Z,51.4
2018-05-29T09:32:31.943Z,50.5
2018-05-29T09:32:53.099Z,50.4
2018-05-29T09:33:13.400Z,50.7
2018-05-29T09:33:33.759Z,49.9
2018-05-29T09:33:54.061Z,48.6
2018-05-29T09:34:14.371Z,48.2
2018-05-29T09:34:34.683Z,48.9
2018-05-29T09:34:54.909Z,48.8
2018-05-29T09:35:15.155Z,48
2018-05-29T09:35:35.718Z,47.9
2018-05-29T09:35:57.557Z,48.1
2018-05-29T09:36:17.821Z,47.9
2018-05-29T09:36:38.976Z,47.8
2018-05-29T09:36:59.259Z,48
2018-05-29T09:37:19.514Z,46.7
2018-05-29T09:37:40.573Z,47.3
2018-05-29T09:38:00.769Z,47.6
2018-05-29T09:38:21.007Z,47.9
2018-05-29T09:38:41.337Z,47.5
2018-05-29T09:39:02.400Z,47.7
2018-05-29T09:39:22.546Z,48
2018-05-29T09:39:42.751Z,47.4
2018-05-29T09:40:02.959Z,47.8
2018-05-29T09:40:23.249Z,47.9
2018-05-29T09:40:44.075Z,47.9
2018-05-29T09:41:04.311Z,47.8
2018-05-29T09:41:24.728Z,48.5
2018-05-29T09:41:45.042Z,48.6
2018-05-29T09:42:06.062Z,47.8
2018-05-29T09:42:26.419Z,48
2018-05-29T09:42:46.682Z,47.8
2018-05-29T09:43:06.885Z,47.7
2018-05-29T09:43:27.109Z,47.5
2018-05-29T09:43:48.040Z,47.2
2018-05-29T09:44:09.031Z,46.8
2018-05-29T09:44:29.493Z,46.9
2018-05-29T09:44:50.575Z,46.7
2018-05-29T09:45:11.480Z,46.5